Terminal Aerodrome Forecast
Issued by NWS Rapid City, SD

Home | Current Version | Previous Version | Graphics & Text | Print | Product List | Glossary On
Versions: 1 2 3 4 5 6 7 8 9 10 11 12 13 14 15 16 17 18 19
296
FTUS43 KUNR 240310 AAA
TAFRAP
TAF AMD
KRAP 240310Z 2403/2424 03012KT P6SM SCT011 OVC019
      TEMPO 2403/2406 3SM -SN OVC011
     FM240600 01011KT 5SM -SN OVC013
     FM240900 36009KT P6SM OVC005
     FM241300 36011KT P6SM OVC020
     FM241900 03008KT P6SM BKN070=

USA.gov is the U.S. government's official web portal to all federal, state and local government web resources and services.